sensor_id;sensor_type;location;lat;lon;timestamp;P1;durP1;ratioP1;P2;durP2;ratioP2
19205;SDS011;59358;52.134;5.596;2023-11-19T00:00:28;22.17;;;11.95;;
19205;SDS011;59358;52.134;5.596;2023-11-19T00:02:55;25.05;;;12.80;;
19205;SDS011;59358;52.134;5.596;2023-11-19T00:05:21;27.10;;;11.80;;
19205;SDS011;59358;52.134;5.596;2023-11-19T00:07:48;24.05;;;12.45;;
19205;SDS011;59358;52.134;5.596;2023-11-19T00:10:15;25.98;;;12.43;;
19205;SDS011;59358;52.134;5.596;2023-11-19T00:12:44;24.90;;;11.57;;
19205;SDS011;59358;52.134;5.596;2023-11-19T00:15:14;24.65;;;12.85;;
19205;SDS011;59358;52.134;5.596;2023-11-19T00:17:44;24.85;;;12.80;;
19205;SDS011;59358;52.134;5.596;2023-11-19T00:20:12;29.58;;;13.48;;
19205;SDS011;59358;52.134;5.596;2023-11-19T00:22:40;28.92;;;11.80;;
19205;SDS011;59358;52.134;5.596;2023-11-19T00:25:07;26.23;;;12.65;;
19205;SDS011;59358;52.134;5.596;2023-11-19T00:27:35;33.50;;;11.95;;
19205;SDS011;59358;52.134;5.596;2023-11-19T00:30:02;23.85;;;11.32;;
19205;SDS011;59358;52.134;5.596;2023-11-19T00:32:32;25.73;;;10.75;;
19205;SDS011;59358;52.134;5.596;2023-11-19T00:34:58;33.40;;;11.85;;
19205;SDS011;59358;52.134;5.596;2023-11-19T00:37:25;28.48;;;10.95;;
19205;SDS011;59358;52.134;5.596;2023-11-19T00:39:52;28.50;;;10.73;;
19205;SDS011;59358;52.134;5.596;2023-11-19T00:42:20;29.40;;;9.93;;
19205;SDS011;59358;52.134;5.596;2023-11-19T00:44:48;24.35;;;10.65;;
19205;SDS011;59358;52.134;5.596;2023-11-19T00:47:15;36.05;;;10.30;;
19205;SDS011;59358;52.134;5.596;2023-11-19T00:49:43;28.83;;;10.30;;
19205;SDS011;59358;52.134;5.596;2023-11-19T00:52:10;26.83;;;9.60;;
19205;SDS011;59358;52.134;5.596;2023-11-19T00:54:36;35.95;;;9.60;;
19205;SDS011;59358;52.134;5.596;2023-11-19T00:57:03;30.75;;;9.60;;
19205;SDS011;59358;52.134;5.596;2023-11-19T00:59:31;28.60;;;9.35;;
19205;SDS011;59358;52.134;5.596;2023-11-19T01:01:58;42.22;;;8.05;;
19205;SDS011;59358;52.134;5.596;2023-11-19T01:04:28;30.77;;;8.27;;
19205;SDS011;59358;52.134;5.596;2023-11-19T01:06:56;30.63;;;7.57;;
19205;SDS011;59358;52.134;5.596;2023-11-19T01:09:23;34.70;;;9.25;;
19205;SDS011;59358;52.134;5.596;2023-11-19T01:11:49;27.73;;;8.68;;
19205;SDS011;59358;52.134;5.596;2023-11-19T01:14:16;29.15;;;7.60;;
19205;SDS011;59358;52.134;5.596;2023-11-19T01:16:43;37.63;;;8.13;;
19205;SDS011;59358;52.134;5.596;2023-11-19T01:19:10;35.22;;;8.63;;
19205;SDS011;59358;52.134;5.596;2023-11-19T01:21:37;33.70;;;6.93;;
19205;SDS011;59358;52.134;5.596;2023-11-19T01:24:06;33.83;;;8.20;;
19205;SDS011;59358;52.134;5.596;2023-11-19T01:26:34;26.85;;;7.78;;
19205;SDS011;59358;52.134;5.596;2023-11-19T01:29:01;31.00;;;7.95;;
19205;SDS011;59358;52.134;5.596;2023-11-19T01:31:28;32.47;;;7.43;;
19205;SDS011;59358;52.134;5.596;2023-11-19T01:33:55;34.33;;;8.25;;
19205;SDS011;59358;52.134;5.596;2023-11-19T01:36:22;41.13;;;8.15;;
19205;SDS011;59358;52.134;5.596;2023-11-19T01:38:49;32.90;;;7.78;;
19205;SDS011;59358;52.134;5.596;2023-11-19T01:41:17;37.70;;;8.35;;
19205;SDS011;59358;52.134;5.596;2023-11-19T01:43:44;35.90;;;7.30;;
19205;SDS011;59358;52.134;5.596;2023-11-19T01:46:12;40.67;;;8.50;;
19205;SDS011;59358;52.134;5.596;2023-11-19T01:48:40;35.33;;;7.75;;
19205;SDS011;59358;52.134;5.596;2023-11-19T01:51:10;49.22;;;8.45;;
19205;SDS011;59358;52.134;5.596;2023-11-19T01:53:38;36.75;;;7.63;;
19205;SDS011;59358;52.134;5.596;2023-11-19T01:56:07;37.05;;;7.05;;
19205;SDS011;59358;52.134;5.596;2023-11-19T01:58:36;36.13;;;7.18;;
19205;SDS011;59358;52.134;5.596;2023-11-19T02:01:04;44.28;;;8.40;;
19205;SDS011;59358;52.134;5.596;2023-11-19T02:03:32;37.20;;;7.05;;
19205;SDS011;59358;52.134;5.596;2023-11-19T02:05:59;41.38;;;7.18;;
19205;SDS011;59358;52.134;5.596;2023-11-19T02:08:26;40.08;;;7.78;;
19205;SDS011;59358;52.134;5.596;2023-11-19T02:10:53;41.78;;;8.75;;
19205;SDS011;59358;52.134;5.596;2023-11-19T02:13:22;41.55;;;7.75;;
19205;SDS011;59358;52.134;5.596;2023-11-19T02:15:50;37.70;;;8.65;;
19205;SDS011;59358;52.134;5.596;2023-11-19T02:18:17;49.05;;;8.52;;
19205;SDS011;59358;52.134;5.596;2023-11-19T02:20:45;43.17;;;7.70;;
19205;SDS011;59358;52.134;5.596;2023-11-19T02:23:12;45.40;;;7.47;;
19205;SDS011;59358;52.134;5.596;2023-11-19T02:25:40;43.35;;;8.80;;
19205;SDS011;59358;52.134;5.596;2023-11-19T02:28:08;44.53;;;7.72;;
19205;SDS011;59358;52.134;5.596;2023-11-19T02:30:37;48.95;;;9.02;;
19205;SDS011;59358;52.134;5.596;2023-11-19T02:33:04;43.72;;;8.13;;
19205;SDS011;59358;52.134;5.596;2023-11-19T02:35:32;48.00;;;8.50;;
19205;SDS011;59358;52.134;5.596;2023-11-19T02:37:59;44.20;;;8.45;;
19205;SDS011;59358;52.134;5.596;2023-11-19T02:40:28;40.33;;;8.35;;
19205;SDS011;59358;52.134;5.596;2023-11-19T02:42:56;54.00;;;9.43;;
19205;SDS011;59358;52.134;5.596;2023-11-19T02:45:24;41.80;;;6.88;;
19205;SDS011;59358;52.134;5.596;2023-11-19T02:47:52;46.03;;;8.68;;
19205;SDS011;59358;52.134;5.596;2023-11-19T02:50:20;49.65;;;9.43;;
19205;SDS011;59358;52.134;5.596;2023-11-19T02:52:51;50.83;;;9.45;;
19205;SDS011;59358;52.134;5.596;2023-11-19T02:55:19;43.65;;;8.82;;
19205;SDS011;59358;52.134;5.596;2023-11-19T02:57:46;52.67;;;8.32;;
19205;SDS011;59358;52.134;5.596;2023-11-19T03:00:15;52.42;;;9.98;;
19205;SDS011;59358;52.134;5.596;2023-11-19T03:02:44;50.72;;;8.43;;
19205;SDS011;59358;52.134;5.596;2023-11-19T03:05:13;52.38;;;8.30;;
19205;SDS011;59358;52.134;5.596;2023-11-19T03:07:41;51.58;;;8.85;;
19205;SDS011;59358;52.134;5.596;2023-11-19T03:10:09;52.00;;;9.15;;
19205;SDS011;59358;52.134;5.596;2023-11-19T03:12:39;43.65;;;8.90;;
19205;SDS011;59358;52.134;5.596;2023-11-19T03:15:06;51.38;;;8.50;;
19205;SDS011;59358;52.134;5.596;2023-11-19T03:17:35;52.63;;;9.10;;
19205;SDS011;59358;52.134;5.596;2023-11-19T03:20:04;49.13;;;8.90;;
19205;SDS011;59358;52.134;5.596;2023-11-19T03:22:34;53.00;;;8.93;;
19205;SDS011;59358;52.134;5.596;2023-11-19T03:25:03;63.50;;;10.10;;
19205;SDS011;59358;52.134;5.596;2023-11-19T03:27:34;47.67;;;9.68;;
19205;SDS011;59358;52.134;5.596;2023-11-19T03:30:01;52.53;;;9.60;;
19205;SDS011;59358;52.134;5.596;2023-11-19T03:32:29;49.47;;;9.40;;
19205;SDS011;59358;52.134;5.596;2023-11-19T03:34:56;55.58;;;9.52;;
19205;SDS011;59358;52.134;5.596;2023-11-19T03:37:25;55.85;;;9.18;;
19205;SDS011;59358;52.134;5.596;2023-11-19T03:39:53;49.72;;;8.73;;
19205;SDS011;59358;52.134;5.596;2023-11-19T03:42:20;44.65;;;8.15;;
19205;SDS011;59358;52.134;5.596;2023-11-19T03:44:47;53.83;;;9.75;;
19205;SDS011;59358;52.134;5.596;2023-11-19T03:47:14;60.08;;;9.98;;
19205;SDS011;59358;52.134;5.596;2023-11-19T03:49:41;46.20;;;9.60;;
19205;SDS011;59358;52.134;5.596;2023-11-19T03:52:09;63.80;;;10.27;;
19205;SDS011;59358;52.134;5.596;2023-11-19T03:54:37;65.32;;;9.27;;
19205;SDS011;59358;52.134;5.596;2023-11-19T03:57:04;72.55;;;10.93;;
19205;SDS011;59358;52.134;5.596;2023-11-19T03:59:30;59.63;;;10.68;;
19205;SDS011;59358;52.134;5.596;2023-11-19T04:01:58;61.08;;;11.30;;
19205;SDS011;59358;52.134;5.596;2023-11-19T04:04:27;65.95;;;10.25;;
19205;SDS011;59358;52.134;5.596;2023-11-19T04:06:55;68.70;;;11.80;;
19205;SDS011;59358;52.134;5.596;2023-11-19T04:09:23;56.22;;;11.55;;
19205;SDS011;59358;52.134;5.596;2023-11-19T04:11:51;66.28;;;10.25;;
19205;SDS011;59358;52.134;5.596;2023-11-19T04:14:17;56.42;;;10.63;;
19205;SDS011;59358;52.134;5.596;2023-11-19T04:16:44;64.05;;;10.57;;
19205;SDS011;59358;52.134;5.596;2023-11-19T04:19:11;52.63;;;10.68;;
19205;SDS011;59358;52.134;5.596;2023-11-19T04:21:39;73.57;;;10.82;;
19205;SDS011;59358;52.134;5.596;2023-11-19T04:24:07;57.75;;;9.98;;
19205;SDS011;59358;52.134;5.596;2023-11-19T04:26:39;54.15;;;9.32;;
19205;SDS011;59358;52.134;5.596;2023-11-19T04:29:09;46.78;;;10.00;;
19205;SDS011;59358;52.134;5.596;2023-11-19T04:31:36;64.85;;;9.27;;
19205;SDS011;59358;52.134;5.596;2023-11-19T04:34:03;54.28;;;8.48;;
19205;SDS011;59358;52.134;5.596;2023-11-19T04:36:31;59.88;;;11.07;;
19205;SDS011;59358;52.134;5.596;2023-11-19T04:38:58;48.10;;;7.47;;
19205;SDS011;59358;52.134;5.596;2023-11-19T04:41:25;52.67;;;9.02;;
19205;SDS011;59358;52.134;5.596;2023-11-19T04:43:53;61.05;;;9.90;;
19205;SDS011;59358;52.134;5.596;2023-11-19T04:46:21;57.90;;;10.35;;
19205;SDS011;59358;52.134;5.596;2023-11-19T04:48:49;53.88;;;9.65;;
19205;SDS011;59358;52.134;5.596;2023-11-19T04:51:16;58.20;;;10.15;;
19205;SDS011;59358;52.134;5.596;2023-11-19T04:53:43;54.40;;;9.57;;
19205;SDS011;59358;52.134;5.596;2023-11-19T04:56:10;65.30;;;11.30;;
19205;SDS011;59358;52.134;5.596;2023-11-19T04:58:38;67.30;;;10.90;;
19205;SDS011;59358;52.134;5.596;2023-11-19T05:01:05;55.85;;;9.30;;
19205;SDS011;59358;52.134;5.596;2023-11-19T05:03:33;64.63;;;10.55;;
19205;SDS011;59358;52.134;5.596;2023-11-19T05:06:01;68.60;;;9.43;;
19205;SDS011;59358;52.134;5.596;2023-11-19T05:08:28;64.70;;;11.23;;
19205;SDS011;59358;52.134;5.596;2023-11-19T05:10:55;55.22;;;10.82;;
19205;SDS011;59358;52.134;5.596;2023-11-19T05:13:22;54.13;;;9.15;;
19205;SDS011;59358;52.134;5.596;2023-11-19T05:15:49;48.38;;;9.88;;
19205;SDS011;59358;52.134;5.596;2023-11-19T05:18:16;65.57;;;10.43;;
19205;SDS011;59358;52.134;5.596;2023-11-19T05:20:44;53.45;;;8.85;;
19205;SDS011;59358;52.134;5.596;2023-11-19T05:23:11;56.45;;;9.63;;
19205;SDS011;59358;52.134;5.596;2023-11-19T05:25:38;64.78;;;10.25;;
19205;SDS011;59358;52.134;5.596;2023-11-19T05:28:05;52.53;;;9.50;;
19205;SDS011;59358;52.134;5.596;2023-11-19T05:30:32;58.83;;;10.07;;
19205;SDS011;59358;52.134;5.596;2023-11-19T05:32:58;61.75;;;8.98;;
19205;SDS011;59358;52.134;5.596;2023-11-19T05:35:25;62.15;;;11.05;;
19205;SDS011;59358;52.134;5.596;2023-11-19T05:37:54;54.97;;;9.60;;
19205;SDS011;59358;52.134;5.596;2023-11-19T05:40:21;55.55;;;9.02;;
19205;SDS011;59358;52.134;5.596;2023-11-19T05:42:48;61.80;;;9.60;;
19205;SDS011;59358;52.134;5.596;2023-11-19T05:45:14;46.53;;;8.68;;
19205;SDS011;59358;52.134;5.596;2023-11-19T05:47:41;61.47;;;10.48;;
19205;SDS011;59358;52.134;5.596;2023-11-19T05:50:09;54.88;;;9.50;;
19205;SDS011;59358;52.134;5.596;2023-11-19T05:52:36;56.97;;;10.65;;
19205;SDS011;59358;52.134;5.596;2023-11-19T05:55:05;46.60;;;9.18;;
19205;SDS011;59358;52.134;5.596;2023-11-19T05:57:34;59.33;;;10.25;;
19205;SDS011;59358;52.134;5.596;2023-11-19T06:00:01;53.35;;;10.15;;
19205;SDS011;59358;52.134;5.596;2023-11-19T06:02:32;47.58;;;8.75;;
19205;SDS011;59358;52.134;5.596;2023-11-19T06:04:59;46.13;;;9.65;;
19205;SDS011;59358;52.134;5.596;2023-11-19T06:07:26;49.63;;;9.00;;
19205;SDS011;59358;52.134;5.596;2023-11-19T06:09:53;53.58;;;9.93;;
19205;SDS011;59358;52.134;5.596;2023-11-19T06:12:21;50.58;;;9.60;;
19205;SDS011;59358;52.134;5.596;2023-11-19T06:14:48;47.63;;;7.97;;
19205;SDS011;59358;52.134;5.596;2023-11-19T06:17:15;49.70;;;8.25;;
19205;SDS011;59358;52.134;5.596;2023-11-19T06:19:41;65.95;;;10.90;;
19205;SDS011;59358;52.134;5.596;2023-11-19T06:22:08;50.35;;;10.15;;
19205;SDS011;59358;52.134;5.596;2023-11-19T06:24:35;57.70;;;9.07;;
19205;SDS011;59358;52.134;5.596;2023-11-19T06:27:02;51.90;;;9.10;;
19205;SDS011;59358;52.134;5.596;2023-11-19T06:29:30;60.30;;;9.88;;
19205;SDS011;59358;52.134;5.596;2023-11-19T06:31:57;65.80;;;11.05;;
19205;SDS011;59358;52.134;5.596;2023-11-19T06:34:25;65.78;;;10.18;;
19205;SDS011;59358;52.134;5.596;2023-11-19T06:36:51;52.47;;;9.88;;
19205;SDS011;59358;52.134;5.596;2023-11-19T06:39:18;52.50;;;9.13;;
19205;SDS011;59358;52.134;5.596;2023-11-19T06:41:45;54.92;;;10.65;;
19205;SDS011;59358;52.134;5.596;2023-11-19T06:44:12;55.50;;;10.65;;
19205;SDS011;59358;52.134;5.596;2023-11-19T06:46:41;53.50;;;10.27;;
19205;SDS011;59358;52.134;5.596;2023-11-19T06:49:07;58.95;;;11.15;;
19205;SDS011;59358;52.134;5.596;2023-11-19T06:51:34;74.35;;;10.77;;
19205;SDS011;59358;52.134;5.596;2023-11-19T06:54:01;61.35;;;9.73;;
19205;SDS011;59358;52.134;5.596;2023-11-19T06:56:28;59.47;;;9.40;;
19205;SDS011;59358;52.134;5.596;2023-11-19T06:58:54;76.53;;;10.98;;
19205;SDS011;59358;52.134;5.596;2023-11-19T07:01:21;74.85;;;10.65;;
19205;SDS011;59358;52.134;5.596;2023-11-19T07:03:49;52.40;;;10.07;;
19205;SDS011;59358;52.134;5.596;2023-11-19T07:06:16;59.72;;;9.77;;
19205;SDS011;59358;52.134;5.596;2023-11-19T07:08:43;58.10;;;9.73;;
19205;SDS011;59358;52.134;5.596;2023-11-19T07:11:10;55.22;;;9.70;;
19205;SDS011;59358;52.134;5.596;2023-11-19T07:13:39;58.72;;;10.43;;
19205;SDS011;59358;52.134;5.596;2023-11-19T07:16:07;74.75;;;10.98;;
19205;SDS011;59358;52.134;5.596;2023-11-19T07:18:35;56.53;;;9.55;;
19205;SDS011;59358;52.134;5.596;2023-11-19T07:21:05;66.07;;;10.07;;
19205;SDS011;59358;52.134;5.596;2023-11-19T07:23:35;52.45;;;9.75;;
19205;SDS011;59358;52.134;5.596;2023-11-19T07:26:04;52.65;;;9.05;;
19205;SDS011;59358;52.134;5.596;2023-11-19T07:28:33;51.30;;;9.90;;
19205;SDS011;59358;52.134;5.596;2023-11-19T07:30:59;52.30;;;8.60;;
19205;SDS011;59358;52.134;5.596;2023-11-19T07:33:27;47.75;;;8.55;;
19205;SDS011;59358;52.134;5.596;2023-11-19T07:35:54;62.28;;;9.73;;
19205;SDS011;59358;52.134;5.596;2023-11-19T07:38:22;58.88;;;9.52;;
19205;SDS011;59358;52.134;5.596;2023-11-19T07:40:49;57.60;;;9.77;;
19205;SDS011;59358;52.134;5.596;2023-11-19T07:43:16;58.58;;;11.77;;
19205;SDS011;59358;52.134;5.596;2023-11-19T07:45:43;50.28;;;9.38;;
19205;SDS011;59358;52.134;5.596;2023-11-19T07:48:11;63.97;;;10.90;;
19205;SDS011;59358;52.134;5.596;2023-11-19T07:50:38;64.38;;;10.18;;
19205;SDS011;59358;52.134;5.596;2023-11-19T07:53:06;55.45;;;11.20;;
19205;SDS011;59358;52.134;5.596;2023-11-19T07:55:35;70.43;;;10.80;;
19205;SDS011;59358;52.134;5.596;2023-11-19T07:58:01;52.08;;;10.02;;
19205;SDS011;59358;52.134;5.596;2023-11-19T08:00:28;50.08;;;9.60;;
19205;SDS011;59358;52.134;5.596;2023-11-19T08:02:55;63.03;;;9.52;;
19205;SDS011;59358;52.134;5.596;2023-11-19T08:05:22;54.03;;;10.32;;
19205;SDS011;59358;52.134;5.596;2023-11-19T08:07:49;63.08;;;10.70;;
19205;SDS011;59358;52.134;5.596;2023-11-19T08:10:17;58.15;;;12.00;;
19205;SDS011;59358;52.134;5.596;2023-11-19T08:12:45;58.45;;;10.20;;
19205;SDS011;59358;52.134;5.596;2023-11-19T08:15:12;58.17;;;10.07;;
19205;SDS011;59358;52.134;5.596;2023-11-19T08:17:38;56.10;;;9.85;;
19205;SDS011;59358;52.134;5.596;2023-11-19T08:20:06;54.88;;;9.88;;
19205;SDS011;59358;52.134;5.596;2023-11-19T08:22:35;52.00;;;9.73;;
19205;SDS011;59358;52.134;5.596;2023-11-19T08:25:02;56.22;;;10.35;;
19205;SDS011;59358;52.134;5.596;2023-11-19T08:27:29;61.28;;;10.43;;
19205;SDS011;59358;52.134;5.596;2023-11-19T08:29:58;57.05;;;9.77;;
19205;SDS011;59358;52.134;5.596;2023-11-19T08:32:24;59.45;;;10.20;;
19205;SDS011;59358;52.134;5.596;2023-11-19T08:34:52;55.70;;;9.35;;
19205;SDS011;59358;52.134;5.596;2023-11-19T08:37:19;54.25;;;9.73;;
19205;SDS011;59358;52.134;5.596;2023-11-19T08:39:47;53.42;;;8.75;;
19205;SDS011;59358;52.134;5.596;2023-11-19T08:42:13;61.45;;;10.85;;
19205;SDS011;59358;52.134;5.596;2023-11-19T08:44:40;53.72;;;9.93;;
19205;SDS011;59358;52.134;5.596;2023-11-19T08:47:10;46.35;;;9.65;;
19205;SDS011;59358;52.134;5.596;2023-11-19T08:49:38;58.65;;;11.20;;
19205;SDS011;59358;52.134;5.596;2023-11-19T08:52:08;53.17;;;9.65;;
19205;SDS011;59358;52.134;5.596;2023-11-19T08:54:35;55.63;;;10.73;;
19205;SDS011;59358;52.134;5.596;2023-11-19T08:57:02;51.67;;;8.80;;
19205;SDS011;59358;52.134;5.596;2023-11-19T08:59:29;53.63;;;10.05;;
19205;SDS011;59358;52.134;5.596;2023-11-19T09:01:56;44.40;;;8.40;;
19205;SDS011;59358;52.134;5.596;2023-11-19T09:04:24;56.03;;;8.98;;
19205;SDS011;59358;52.134;5.596;2023-11-19T09:06:51;49.42;;;9.55;;
19205;SDS011;59358;52.134;5.596;2023-11-19T09:09:18;48.85;;;9.15;;
19205;SDS011;59358;52.134;5.596;2023-11-19T09:11:44;59.95;;;13.38;;
19205;SDS011;59358;52.134;5.596;2023-11-19T09:14:11;48.60;;;8.68;;
19205;SDS011;59358;52.134;5.596;2023-11-19T09:16:38;51.67;;;9.48;;
19205;SDS011;59358;52.134;5.596;2023-11-19T09:19:05;43.63;;;7.60;;
19205;SDS011;59358;52.134;5.596;2023-11-19T09:21:33;42.65;;;8.07;;
19205;SDS011;59358;52.134;5.596;2023-11-19T09:24:02;45.42;;;8.80;;
19205;SDS011;59358;52.134;5.596;2023-11-19T09:26:30;43.08;;;9.57;;
19205;SDS011;59358;52.134;5.596;2023-11-19T09:28:56;49.95;;;9.75;;
19205;SDS011;59358;52.134;5.596;2023-11-19T09:31:23;48.45;;;8.25;;
19205;SDS011;59358;52.134;5.596;2023-11-19T09:33:50;54.97;;;8.93;;
19205;SDS011;59358;52.134;5.596;2023-11-19T09:36:17;54.45;;;10.02;;
19205;SDS011;59358;52.134;5.596;2023-11-19T09:38:45;42.60;;;8.18;;
19205;SDS011;59358;52.134;5.596;2023-11-19T09:41:12;49.45;;;8.20;;
19205;SDS011;59358;52.134;5.596;2023-11-19T09:43:39;46.30;;;8.95;;
19205;SDS011;59358;52.134;5.596;2023-11-19T09:46:06;55.17;;;9.40;;
19205;SDS011;59358;52.134;5.596;2023-11-19T09:48:36;46.50;;;8.73;;
19205;SDS011;59358;52.134;5.596;2023-11-19T09:51:05;48.60;;;8.10;;
19205;SDS011;59358;52.134;5.596;2023-11-19T09:53:33;40.92;;;8.13;;
19205;SDS011;59358;52.134;5.596;2023-11-19T09:56:05;33.65;;;7.28;;
19205;SDS011;59358;52.134;5.596;2023-11-19T09:58:34;47.92;;;9.85;;
19205;SDS011;59358;52.134;5.596;2023-11-19T10:01:01;48.92;;;8.75;;
19205;SDS011;59358;52.134;5.596;2023-11-19T10:03:32;44.35;;;7.68;;
19205;SDS011;59358;52.134;5.596;2023-11-19T10:06:03;44.10;;;7.18;;
19205;SDS011;59358;52.134;5.596;2023-11-19T10:08:31;52.67;;;8.68;;
19205;SDS011;59358;52.134;5.596;2023-11-19T10:10:58;49.50;;;9.55;;
19205;SDS011;59358;52.134;5.596;2023-11-19T10:13:27;42.53;;;8.45;;
19205;SDS011;59358;52.134;5.596;2023-11-19T10:15:55;51.05;;;8.88;;
19205;SDS011;59358;52.134;5.596;2023-11-19T10:18:23;40.85;;;7.20;;
19205;SDS011;59358;52.134;5.596;2023-11-19T10:20:51;46.10;;;8.68;;
19205;SDS011;59358;52.134;5.596;2023-11-19T10:23:18;43.53;;;9.27;;
19205;SDS011;59358;52.134;5.596;2023-11-19T10:25:45;46.38;;;10.05;;
19205;SDS011;59358;52.134;5.596;2023-11-19T10:28:12;40.20;;;7.82;;
19205;SDS011;59358;52.134;5.596;2023-11-19T10:30:43;51.92;;;9.40;;
19205;SDS011;59358;52.134;5.596;2023-11-19T10:33:11;45.80;;;8.68;;
19205;SDS011;59358;52.134;5.596;2023-11-19T10:35:50;35.22;;;7.63;;
19205;SDS011;59358;52.134;5.596;2023-11-19T10:38:18;48.15;;;9.27;;
19205;SDS011;59358;52.134;5.596;2023-11-19T10:40:46;51.33;;;7.97;;
19205;SDS011;59358;52.134;5.596;2023-11-19T10:43:13;28.95;;;7.97;;
19205;SDS011;59358;52.134;5.596;2023-11-19T10:45:42;39.60;;;9.23;;
19205;SDS011;59358;52.134;5.596;2023-11-19T10:48:29;44.17;;;8.35;;
19205;SDS011;59358;52.134;5.596;2023-11-19T10:50:56;44.22;;;7.22;;
19205;SDS011;59358;52.134;5.596;2023-11-19T10:53:23;43.50;;;8.23;;
19205;SDS011;59358;52.134;5.596;2023-11-19T10:55:51;39.28;;;7.90;;
19205;SDS011;59358;52.134;5.596;2023-11-19T10:58:20;37.97;;;7.95;;
19205;SDS011;59358;52.134;5.596;2023-11-19T11:00:50;45.67;;;7.72;;
19205;SDS011;59358;52.134;5.596;2023-11-19T11:03:20;38.70;;;7.97;;
19205;SDS011;59358;52.134;5.596;2023-11-19T11:05:49;42.33;;;8.88;;
19205;SDS011;59358;52.134;5.596;2023-11-19T11:08:16;60.28;;;10.13;;
19205;SDS011;59358;52.134;5.596;2023-11-19T11:10:44;35.22;;;7.03;;
19205;SDS011;59358;52.134;5.596;2023-11-19T11:13:14;37.47;;;8.07;;
19205;SDS011;59358;52.134;5.596;2023-11-19T11:15:42;49.00;;;7.63;;
19205;SDS011;59358;52.134;5.596;2023-11-19T11:18:13;35.42;;;8.40;;
19205;SDS011;59358;52.134;5.596;2023-11-19T11:20:40;48.05;;;9.93;;
19205;SDS011;59358;52.134;5.596;2023-11-19T11:26:13;35.97;;;8.40;;
19205;SDS011;59358;52.134;5.596;2023-11-19T11:28:55;38.90;;;8.23;;
19205;SDS011;59358;52.134;5.596;2023-11-19T11:31:29;43.47;;;7.22;;
19205;SDS011;59358;52.134;5.596;2023-11-19T11:34:11;41.63;;;7.15;;
19205;SDS011;59358;52.134;5.596;2023-11-19T11:36:57;42.58;;;7.90;;
19205;SDS011;59358;52.134;5.596;2023-11-19T11:39:34;37.30;;;7.57;;
19205;SDS011;59358;52.134;5.596;2023-11-19T11:45:01;36.53;;;6.95;;
19205;SDS011;59358;52.134;5.596;2023-11-19T11:50:48;35.65;;;7.30;;
19205;SDS011;59358;52.134;5.596;2023-11-19T11:53:16;41.58;;;7.35;;
19205;SDS011;59358;52.134;5.596;2023-11-19T11:55:54;38.55;;;7.93;;
19205;SDS011;59358;52.134;5.596;2023-11-19T12:01:10;40.55;;;8.90;;
19205;SDS011;59358;52.134;5.596;2023-11-19T12:03:45;43.28;;;9.48;;
19205;SDS011;59358;52.134;5.596;2023-11-19T12:06:14;33.80;;;7.47;;
19205;SDS011;59358;52.134;5.596;2023-11-19T12:08:40;48.25;;;7.28;;
19205;SDS011;59358;52.134;5.596;2023-11-19T12:11:15;39.30;;;8.93;;
19205;SDS011;59358;52.134;5.596;2023-11-19T12:13:52;47.47;;;8.23;;
19205;SDS011;59358;52.134;5.596;2023-11-19T12:16:23;38.65;;;6.97;;
19205;SDS011;59358;52.134;5.596;2023-11-19T12:18:53;36.78;;;9.70;;
19205;SDS011;59358;52.134;5.596;2023-11-19T12:21:28;38.45;;;8.55;;
19205;SDS011;59358;52.134;5.596;2023-11-19T12:23:57;27.95;;;7.30;;
19205;SDS011;59358;52.134;5.596;2023-11-19T12:26:36;36.28;;;8.73;;
19205;SDS011;59358;52.134;5.596;2023-11-19T12:29:04;30.83;;;6.60;;
19205;SDS011;59358;52.134;5.596;2023-11-19T12:31:32;32.40;;;6.28;;
19205;SDS011;59358;52.134;5.596;2023-11-19T12:34:08;31.88;;;7.78;;
19205;SDS011;59358;52.134;5.596;2023-11-19T12:36:39;32.13;;;8.18;;
19205;SDS011;59358;52.134;5.596;2023-11-19T12:39:07;31.15;;;6.72;;
19205;SDS011;59358;52.134;5.596;2023-11-19T12:41:50;30.33;;;6.43;;
19205;SDS011;59358;52.134;5.596;2023-11-19T12:44:18;36.45;;;6.90;;
19205;SDS011;59358;52.134;5.596;2023-11-19T12:46:45;38.05;;;6.75;;
19205;SDS011;59358;52.134;5.596;2023-11-19T12:49:11;37.35;;;6.22;;
19205;SDS011;59358;52.134;5.596;2023-11-19T12:51:40;34.20;;;5.82;;
19205;SDS011;59358;52.134;5.596;2023-11-19T12:54:07;29.95;;;7.32;;
19205;SDS011;59358;52.134;5.596;2023-11-19T12:56:34;39.20;;;7.97;;
19205;SDS011;59358;52.134;5.596;2023-11-19T12:59:09;27.63;;;7.07;;
19205;SDS011;59358;52.134;5.596;2023-11-19T13:01:37;22.55;;;5.53;;
19205;SDS011;59358;52.134;5.596;2023-11-19T13:06:50;30.33;;;7.43;;
19205;SDS011;59358;52.134;5.596;2023-11-19T13:09:21;37.25;;;7.72;;
19205;SDS011;59358;52.134;5.596;2023-11-19T13:11:49;39.22;;;7.75;;
19205;SDS011;59358;52.134;5.596;2023-11-19T13:14:16;32.53;;;6.18;;
19205;SDS011;59358;52.134;5.596;2023-11-19T13:16:44;39.58;;;7.18;;
19205;SDS011;59358;52.134;5.596;2023-11-19T13:19:12;28.40;;;6.65;;
19205;SDS011;59358;52.134;5.596;2023-11-19T13:21:39;32.15;;;6.78;;
19205;SDS011;59358;52.134;5.596;2023-11-19T13:24:07;38.88;;;7.30;;
19205;SDS011;59358;52.134;5.596;2023-11-19T13:26:34;35.88;;;7.22;;
19205;SDS011;59358;52.134;5.596;2023-11-19T13:29:03;36.30;;;7.60;;
19205;SDS011;59358;52.134;5.596;2023-11-19T13:31:30;33.30;;;6.97;;
19205;SDS011;59358;52.134;5.596;2023-11-19T13:33:57;39.85;;;8.57;;
19205;SDS011;59358;52.134;5.596;2023-11-19T13:36:24;41.60;;;7.25;;
19205;SDS011;59358;52.134;5.596;2023-11-19T13:38:51;41.25;;;8.10;;
19205;SDS011;59358;52.134;5.596;2023-11-19T13:41:25;44.78;;;8.13;;
19205;SDS011;59358;52.134;5.596;2023-11-19T13:43:51;38.28;;;7.30;;
19205;SDS011;59358;52.134;5.596;2023-11-19T13:46:18;29.83;;;6.82;;
19205;SDS011;59358;52.134;5.596;2023-11-19T13:48:46;44.10;;;7.85;;
19205;SDS011;59358;52.134;5.596;2023-11-19T13:51:14;36.38;;;7.72;;
19205;SDS011;59358;52.134;5.596;2023-11-19T13:53:41;43.80;;;8.30;;
19205;SDS011;59358;52.134;5.596;2023-11-19T13:56:08;39.67;;;6.85;;
19205;SDS011;59358;52.134;5.596;2023-11-19T13:58:36;41.20;;;7.97;;
19205;SDS011;59358;52.134;5.596;2023-11-19T14:01:05;36.25;;;7.18;;
19205;SDS011;59358;52.134;5.596;2023-11-19T14:03:33;41.78;;;7.82;;
19205;SDS011;59358;52.134;5.596;2023-11-19T14:05:59;40.17;;;7.93;;
19205;SDS011;59358;52.134;5.596;2023-11-19T14:08:27;33.63;;;7.38;;
19205;SDS011;59358;52.134;5.596;2023-11-19T14:10:54;30.42;;;6.43;;
19205;SDS011;59358;52.134;5.596;2023-11-19T14:13:21;34.17;;;6.95;;
19205;SDS011;59358;52.134;5.596;2023-11-19T14:15:50;36.88;;;7.13;;
19205;SDS011;59358;52.134;5.596;2023-11-19T14:18:19;31.58;;;6.50;;
19205;SDS011;59358;52.134;5.596;2023-11-19T14:20:46;38.63;;;6.40;;
19205;SDS011;59358;52.134;5.596;2023-11-19T14:23:13;43.35;;;6.50;;
19205;SDS011;59358;52.134;5.596;2023-11-19T14:25:40;34.60;;;6.50;;
19205;SDS011;59358;52.134;5.596;2023-11-19T14:28:06;41.20;;;7.07;;
19205;SDS011;59358;52.134;5.596;2023-11-19T14:30:33;27.75;;;6.25;;
19205;SDS011;59358;52.134;5.596;2023-11-19T14:33:01;37.25;;;6.35;;
19205;SDS011;59358;52.134;5.596;2023-11-19T14:35:30;41.22;;;7.13;;
19205;SDS011;59358;52.134;5.596;2023-11-19T14:37:57;25.05;;;6.13;;
19205;SDS011;59358;52.134;5.596;2023-11-19T14:40:24;34.92;;;7.55;;
19205;SDS011;59358;52.134;5.596;2023-11-19T14:42:51;24.63;;;5.78;;
19205;SDS011;59358;52.134;5.596;2023-11-19T14:45:18;35.95;;;8.05;;
19205;SDS011;59358;52.134;5.596;2023-11-19T14:47:44;36.75;;;6.65;;
19205;SDS011;59358;52.134;5.596;2023-11-19T14:50:13;34.85;;;6.70;;